TimeCDT,TemperatureF,Dew PointF,Humidity,Sea Level PressureIn,VisibilityMPH,Wind Direction,Wind SpeedMPH,Gust SpeedMPH,PrecipitationIn,Events,Conditions,WindDirDegrees,DateUTC
12:15 AM,33.8,22.1,62,30.08,10.0,North,16.1,-,N/A,,Clear,360,2014-03-19 05:15:00
12:35 AM,33.3,22.1,64,30.08,10.0,North,11.5,-,N/A,,Clear,350,2014-03-19 05:35:00
12:55 AM,32.2,21.7,65,30.08,10.0,NNW,10.4,-,N/A,,Clear,330,2014-03-19 05:55:00
1:15 AM,32.0,21.9,66,30.07,10.0,NNW,13.8,-,N/A,,Clear,340,2014-03-19 06:15:00
1:35 AM,32.0,22.1,67,30.07,10.0,NNW,12.7,-,N/A,,Clear,340,2014-03-19 06:35:00
1:55 AM,31.6,21.9,67,30.08,10.0,NW,9.2,-,N/A,,Clear,320,2014-03-19 06:55:00
2:15 AM,29.7,21.2,71,30.08,10.0,NW,9.2,-,N/A,,Clear,310,2014-03-19 07:15:00
2:35 AM,28.8,20.8,72,30.10,10.0,WNW,9.2,-,N/A,,Clear,300,2014-03-19 07:35:00
2:55 AM,27.9,20.3,73,30.11,10.0,WNW,9.2,-,N/A,,Clear,300,2014-03-19 07:55:00
3:15 AM,28.2,21.0,74,30.11,10.0,WNW,9.2,-,N/A,,Clear,300,2014-03-19 08:15:00
3:35 AM,27.5,20.8,76,30.11,10.0,WNW,11.5,-,N/A,,Clear,300,2014-03-19 08:35:00
3:55 AM,27.5,20.8,76,30.11,10.0,WNW,9.2,-,N/A,,Clear,300,2014-03-19 08:55:00
4:15 AM,26.8,20.5,77,30.12,10.0,WNW,9.2,-,N/A,,Clear,300,2014-03-19 09:15:00
4:35 AM,26.8,20.8,78,30.12,10.0,NW,10.4,-,N/A,,Clear,310,2014-03-19 09:35:00
4:55 AM,26.4,20.5,78,30.13,10.0,WNW,9.2,-,N/A,,Clear,300,2014-03-19 09:55:00
5:15 AM,26.6,20.8,79,30.14,10.0,West,8.1,-,N/A,,Clear,280,2014-03-19 10:15:00
5:35 AM,25.7,20.5,81,30.14,10.0,WNW,9.2,-,N/A,,Clear,290,2014-03-19 10:35:00
5:55 AM,24.6,19.6,81,30.16,10.0,West,8.1,-,N/A,,Clear,270,2014-03-19 10:55:00
6:15 AM,23.9,19.6,84,30.17,10.0,WNW,8.1,-,N/A,,Clear,300,2014-03-19 11:15:00
6:35 AM,23.7,19.4,84,30.17,10.0,WNW,9.2,-,N/A,,Clear,300,2014-03-19 11:35:00
6:55 AM,23.9,19.4,83,30.19,10.0,WNW,8.1,-,N/A,,Clear,290,2014-03-19 11:55:00
7:15 AM,23.5,19.4,84,30.20,10.0,West,9.2,-,N/A,,Clear,280,2014-03-19 12:15:00
7:35 AM,23.7,19.4,84,30.21,10.0,WNW,9.2,-,N/A,,Clear,290,2014-03-19 12:35:00
7:55 AM,23.5,19.2,84,30.21,10.0,NW,10.4,-,N/A,,Clear,310,2014-03-19 12:55:00
8:15 AM,25.9,20.8,81,30.22,10.0,NW,9.2,-,N/A,,Clear,310,2014-03-19 13:15:00
8:35 AM,27.7,21.4,77,30.23,10.0,NW,9.2,-,N/A,,Clear,320,2014-03-19 13:35:00
8:55 AM,30.0,22.1,72,30.23,10.0,NW,8.1,-,N/A,,Clear,320,2014-03-19 13:55:00
9:15 AM,32.4,22.5,67,30.24,10.0,NW,6.9,-,N/A,,Clear,310,2014-03-19 14:15:00
9:35 AM,35.1,22.8,61,30.25,10.0,NW,9.2,-,N/A,,Clear,320,2014-03-19 14:35:00
9:55 AM,37.0,23.2,57,30.25,10.0,North,13.8,-,N/A,,Clear,360,2014-03-19 14:55:00
10:15 AM,39.2,23.7,54,30.26,10.0,North,12.7,-,N/A,,Clear,360,2014-03-19 15:15:00
10:35 AM,40.8,23.9,51,30.26,10.0,North,11.5,19.6,N/A,,Clear,10,2014-03-19 15:35:00
10:55 AM,42.1,23.9,49,30.26,10.0,North,10.4,17.3,N/A,,Clear,360,2014-03-19 15:55:00
11:15 AM,43.3,23.4,45,30.27,10.0,NNW,12.7,16.1,N/A,,Clear,340,2014-03-19 16:15:00
11:35 AM,44.1,22.3,42,30.26,10.0,North,11.5,-,N/A,,Clear,350,2014-03-19 16:35:00
11:55 AM,44.8,21.2,39,30.26,10.0,North,9.2,-,N/A,,Clear,350,2014-03-19 16:55:00
12:15 PM,46.6,18.7,33,30.26,10.0,North,9.2,-,N/A,,Clear,350,2014-03-19 17:15:00
12:35 PM,47.5,19.4,33,30.26,10.0,North,10.4,-,N/A,,Clear,350,2014-03-19 17:35:00
12:55 PM,48.9,19.4,31,30.25,10.0,North,6.9,-,N/A,,Clear,350,2014-03-19 17:55:00
1:15 PM,50.0,18.9,29,30.25,10.0,WNW,6.9,-,N/A,,Clear,290,2014-03-19 18:15:00
1:35 PM,50.4,17.8,28,30.24,10.0,NNW,10.4,-,N/A,,Clear,340,2014-03-19 18:35:00
1:55 PM,50.7,16.9,26,30.23,10.0,North,5.8,-,N/A,,Clear,360,2014-03-19 18:55:00
2:15 PM,52.3,16.9,25,30.22,10.0,NNE,6.9,-,N/A,,Clear,20,2014-03-19 19:15:00
2:35 PM,52.9,16.5,24,30.21,10.0,NW,10.4,-,N/A,,Clear,320,2014-03-19 19:35:00
2:55 PM,53.2,16.0,23,30.21,10.0,WNW,8.1,-,N/A,,Clear,300,2014-03-19 19:55:00
3:15 PM,54.0,15.8,22,30.19,10.0,West,6.9,-,N/A,,Clear,270,2014-03-19 20:15:00
3:35 PM,54.3,15.4,22,30.19,10.0,WNW,9.2,-,N/A,,Clear,300,2014-03-19 20:35:00
3:55 PM,54.1,15.6,22,30.18,10.0,Calm,Calm,-,N/A,,Clear,0,2014-03-19 20:55:00
4:15 PM,54.5,15.4,21,30.18,10.0,West,4.6,-,N/A,,Clear,270,2014-03-19 21:15:00
4:35 PM,55.2,15.3,21,30.17,10.0,Calm,Calm,-,N/A,,Clear,0,2014-03-19 21:35:00
4:55 PM,55.8,14.5,20,30.16,10.0,West,9.2,16.1,N/A,,Clear,270,2014-03-19 21:55:00
5:15 PM,55.4,14.5,20,30.16,10.0,WNW,9.2,-,N/A,,Clear,290,2014-03-19 22:15:00
5:35 PM,55.6,14.0,19,30.16,10.0,WNW,10.4,-,N/A,,Clear,290,2014-03-19 22:35:00
5:55 PM,55.8,14.0,19,30.16,10.0,SW,3.5,-,N/A,,Clear,230,2014-03-19 22:55:00
6:15 PM,55.9,13.5,19,30.16,10.0,WNW,4.6,-,N/A,,Clear,290,2014-03-19 23:15:00
6:35 PM,55.8,13.1,19,30.16,10.0,West,8.1,-,N/A,,Clear,260,2014-03-19 23:35:00
6:55 PM,55.0,12.6,19,30.16,10.0,West,6.9,-,N/A,,Clear,270,2014-03-19 23:55:00
7:15 PM,54.0,12.2,19,30.16,10.0,West,5.8,-,N/A,,Clear,260,2014-03-20 00:15:00
7:35 PM,51.3,10.9,20,30.16,10.0,WSW,5.8,-,N/A,,Clear,250,2014-03-20 00:35:00
7:55 PM,48.4,10.9,22,30.16,10.0,SW,6.9,-,N/A,,Clear,220,2014-03-20 00:55:00
8:15 PM,44.8,10.4,25,30.16,10.0,SSW,6.9,-,N/A,,Clear,210,2014-03-20 01:15:00
8:35 PM,44.6,10.2,25,30.16,10.0,SSW,4.6,-,N/A,,Clear,210,2014-03-20 01:35:00
8:55 PM,41.2,10.2,28,30.16,10.0,SSW,8.1,-,N/A,,Clear,200,2014-03-20 01:55:00
9:15 PM,38.5,9.5,30,30.17,10.0,South,9.2,-,N/A,,Clear,190,2014-03-20 02:15:00
9:35 PM,36.5,9.5,33,30.17,10.0,South,10.4,-,N/A,,Clear,190,2014-03-20 02:35:00
9:55 PM,37.0,10.2,33,30.17,10.0,South,8.1,-,N/A,,Clear,190,2014-03-20 02:55:00
10:15 PM,36.0,10.0,34,30.17,10.0,South,9.2,-,N/A,,Clear,170,2014-03-20 03:15:00
10:35 PM,36.1,10.4,35,30.17,10.0,South,9.2,-,N/A,,Clear,180,2014-03-20 03:35:00
10:55 PM,35.2,11.3,37,30.18,10.0,South,10.4,-,N/A,,Clear,190,2014-03-20 03:55:00
11:15 PM,36.0,12.0,37,30.17,10.0,South,10.4,-,N/A,,Clear,190,2014-03-20 04:15:00
11:35 PM,35.2,12.6,39,30.18,10.0,South,10.4,-,N/A,,Clear,190,2014-03-20 04:35:00
11:55 PM,36.7,13.1,38,30.18,10.0,South,10.4,-,N/A,,Clear,190,2014-03-20 04:55:00